sensor_id;sensor_type;location;lat;lon;timestamp;temperature;humidity
16267;DHT22;8241;48.786;9.250;2022-10-23T00:02:02;13.30;99.90
16267;DHT22;8241;48.786;9.250;2022-10-23T00:04:33;13.40;99.90
16267;DHT22;8241;48.786;9.250;2022-10-23T00:07:00;13.30;99.90
16267;DHT22;8241;48.786;9.250;2022-10-23T00:09:27;13.30;99.90
16267;DHT22;8241;48.786;9.250;2022-10-23T00:11:55;13.30;99.90
16267;DHT22;8241;48.786;9.250;2022-10-23T00:14:23;13.20;99.90
16267;DHT22;8241;48.786;9.250;2022-10-23T00:16:50;13.20;99.90
16267;DHT22;8241;48.786;9.250;2022-10-23T00:19:17;13.10;99.90
16267;DHT22;8241;48.786;9.250;2022-10-23T00:21:54;13.10;99.90
16267;DHT22;8241;48.786;9.250;2022-10-23T00:24:21;13.00;99.90
16267;DHT22;8241;48.786;9.250;2022-10-23T00:26:50;13.00;99.90
16267;DHT22;8241;48.786;9.250;2022-10-23T00:29:32;12.90;99.90
16267;DHT22;8241;48.786;9.250;2022-10-23T00:32:10;12.90;99.90
16267;DHT22;8241;48.786;9.250;2022-10-23T00:34:44;12.90;99.90
16267;DHT22;8241;48.786;9.250;2022-10-23T00:37:12;12.80;99.90
16267;DHT22;8241;48.786;9.250;2022-10-23T00:39:39;12.80;99.90
16267;DHT22;8241;48.786;9.250;2022-10-23T00:42:06;12.80;99.90
16267;DHT22;8241;48.786;9.250;2022-10-23T00:49:51;12.70;99.90
16267;DHT22;8241;48.786;9.250;2022-10-23T00:54:48;12.80;99.90
16267;DHT22;8241;48.786;9.250;2022-10-23T00:57:15;12.90;99.90
16267;DHT22;8241;48.786;9.250;2022-10-23T00:59:41;12.90;99.90
16267;DHT22;8241;48.786;9.250;2022-10-23T01:02:08;13.00;99.90
16267;DHT22;8241;48.786;9.250;2022-10-23T01:04:35;13.00;99.90
16267;DHT22;8241;48.786;9.250;2022-10-23T01:07:04;13.00;99.90
16267;DHT22;8241;48.786;9.250;2022-10-23T01:09:35;12.90;99.90
16267;DHT22;8241;48.786;9.250;2022-10-23T01:12:04;12.80;99.90
16267;DHT22;8241;48.786;9.250;2022-10-23T01:14:35;12.80;99.90
16267;DHT22;8241;48.786;9.250;2022-10-23T01:17:04;12.80;99.90
16267;DHT22;8241;48.786;9.250;2022-10-23T01:19:50;12.70;99.90
16267;DHT22;8241;48.786;9.250;2022-10-23T01:22:35;12.70;99.90
16267;DHT22;8241;48.786;9.250;2022-10-23T01:25:06;12.60;99.90
16267;DHT22;8241;48.786;9.250;2022-10-23T01:27:38;12.60;99.90
16267;DHT22;8241;48.786;9.250;2022-10-23T01:30:07;12.60;99.90
16267;DHT22;8241;48.786;9.250;2022-10-23T01:32:42;12.60;99.90
16267;DHT22;8241;48.786;9.250;2022-10-23T01:35:11;12.50;99.90
16267;DHT22;8241;48.786;9.250;2022-10-23T01:37:41;12.50;99.90
16267;DHT22;8241;48.786;9.250;2022-10-23T01:40:11;12.40;99.90
16267;DHT22;8241;48.786;9.250;2022-10-23T01:42:42;12.30;99.90
16267;DHT22;8241;48.786;9.250;2022-10-23T01:45:27;12.30;99.90
16267;DHT22;8241;48.786;9.250;2022-10-23T01:47:56;12.30;99.90
16267;DHT22;8241;48.786;9.250;2022-10-23T01:50:23;12.30;99.90
16267;DHT22;8241;48.786;9.250;2022-10-23T01:52:59;12.30;99.90
16267;DHT22;8241;48.786;9.250;2022-10-23T01:55:26;12.40;99.90
16267;DHT22;8241;48.786;9.250;2022-10-23T01:57:56;12.30;99.90
16267;DHT22;8241;48.786;9.250;2022-10-23T02:00:31;12.30;99.90
16267;DHT22;8241;48.786;9.250;2022-10-23T02:02:59;12.30;99.90
16267;DHT22;8241;48.786;9.250;2022-10-23T02:05:33;12.30;99.90
16267;DHT22;8241;48.786;9.250;2022-10-23T02:08:02;12.30;99.90
16267;DHT22;8241;48.786;9.250;2022-10-23T02:10:30;12.30;99.90
16267;DHT22;8241;48.786;9.250;2022-10-23T02:13:02;12.40;99.90
16267;DHT22;8241;48.786;9.250;2022-10-23T02:15:31;12.40;99.90
16267;DHT22;8241;48.786;9.250;2022-10-23T02:21:08;12.40;99.90
16267;DHT22;8241;48.786;9.250;2022-10-23T02:23:36;12.50;99.90
16267;DHT22;8241;48.786;9.250;2022-10-23T02:26:17;12.50;99.90
16267;DHT22;8241;48.786;9.250;2022-10-23T02:28:50;12.40;99.90
16267;DHT22;8241;48.786;9.250;2022-10-23T02:31:18;12.40;99.90
16267;DHT22;8241;48.786;9.250;2022-10-23T02:36:21;12.20;99.90
16267;DHT22;8241;48.786;9.250;2022-10-23T02:38:48;12.20;99.90
16267;DHT22;8241;48.786;9.250;2022-10-23T02:41:16;12.10;99.90
16267;DHT22;8241;48.786;9.250;2022-10-23T02:43:49;12.00;99.90
16267;DHT22;8241;48.786;9.250;2022-10-23T02:46:19;11.90;99.90
16267;DHT22;8241;48.786;9.250;2022-10-23T02:48:49;12.00;99.90
16267;DHT22;8241;48.786;9.250;2022-10-23T02:51:20;12.00;99.90
16267;DHT22;8241;48.786;9.250;2022-10-23T02:53:57;12.00;99.90
16267;DHT22;8241;48.786;9.250;2022-10-23T02:56:47;11.90;99.90
16267;DHT22;8241;48.786;9.250;2022-10-23T02:59:19;11.90;99.90
16267;DHT22;8241;48.786;9.250;2022-10-23T03:01:50;11.90;99.90
16267;DHT22;8241;48.786;9.250;2022-10-23T03:04:20;11.80;99.90
16267;DHT22;8241;48.786;9.250;2022-10-23T03:06:49;11.80;99.90
16267;DHT22;8241;48.786;9.250;2022-10-23T03:09:16;11.70;99.90
16267;DHT22;8241;48.786;9.250;2022-10-23T03:11:43;11.80;99.90
16267;DHT22;8241;48.786;9.250;2022-10-23T03:14:11;11.70;99.90
16267;DHT22;8241;48.786;9.250;2022-10-23T03:16:40;11.70;99.90
16267;DHT22;8241;48.786;9.250;2022-10-23T03:19:08;11.70;99.90
16267;DHT22;8241;48.786;9.250;2022-10-23T03:24:25;11.80;99.90
16267;DHT22;8241;48.786;9.250;2022-10-23T03:26:52;11.80;99.90
16267;DHT22;8241;48.786;9.250;2022-10-23T03:29:28;11.70;99.90
16267;DHT22;8241;48.786;9.250;2022-10-23T03:32:07;11.60;99.90
16267;DHT22;8241;48.786;9.250;2022-10-23T03:34:34;11.60;99.90
16267;DHT22;8241;48.786;9.250;2022-10-23T03:37:02;11.50;99.90
16267;DHT22;8241;48.786;9.250;2022-10-23T03:39:30;11.60;99.90
16267;DHT22;8241;48.786;9.250;2022-10-23T03:41:57;11.60;99.90
16267;DHT22;8241;48.786;9.250;2022-10-23T03:44:23;11.60;99.90
16267;DHT22;8241;48.786;9.250;2022-10-23T03:46:50;11.60;99.90
16267;DHT22;8241;48.786;9.250;2022-10-23T03:49:18;11.70;99.90
16267;DHT22;8241;48.786;9.250;2022-10-23T03:51:45;11.70;99.90
16267;DHT22;8241;48.786;9.250;2022-10-23T03:54:17;11.70;99.90
16267;DHT22;8241;48.786;9.250;2022-10-23T03:56:45;11.70;99.90
16267;DHT22;8241;48.786;9.250;2022-10-23T04:02:04;11.70;99.90
16267;DHT22;8241;48.786;9.250;2022-10-23T04:04:33;11.70;99.90
16267;DHT22;8241;48.786;9.250;2022-10-23T04:07:03;11.80;99.90
16267;DHT22;8241;48.786;9.250;2022-10-23T04:12:27;11.80;99.90
16267;DHT22;8241;48.786;9.250;2022-10-23T04:14:59;11.70;99.90
16267;DHT22;8241;48.786;9.250;2022-10-23T04:17:36;11.70;99.90
16267;DHT22;8241;48.786;9.250;2022-10-23T04:20:05;11.80;99.90
16267;DHT22;8241;48.786;9.250;2022-10-23T04:25:25;11.80;99.90
16267;DHT22;8241;48.786;9.250;2022-10-23T04:31:03;11.80;99.90
16267;DHT22;8241;48.786;9.250;2022-10-23T04:33:40;11.80;99.90
16267;DHT22;8241;48.786;9.250;2022-10-23T04:36:09;11.90;99.90
16267;DHT22;8241;48.786;9.250;2022-10-23T04:38:40;11.90;99.90
16267;DHT22;8241;48.786;9.250;2022-10-23T04:41:25;11.80;99.90
16267;DHT22;8241;48.786;9.250;2022-10-23T04:43:58;11.80;99.90
16267;DHT22;8241;48.786;9.250;2022-10-23T04:49:03;11.90;99.90
16267;DHT22;8241;48.786;9.250;2022-10-23T04:51:43;12.00;99.90
16267;DHT22;8241;48.786;9.250;2022-10-23T04:54:39;12.00;99.90
16267;DHT22;8241;48.786;9.250;2022-10-23T04:57:33;12.00;99.90
16267;DHT22;8241;48.786;9.250;2022-10-23T05:00:12;12.00;99.90
16267;DHT22;8241;48.786;9.250;2022-10-23T05:05:30;12.10;99.90
16267;DHT22;8241;48.786;9.250;2022-10-23T05:08:06;12.00;99.90
16267;DHT22;8241;48.786;9.250;2022-10-23T05:11:06;12.00;99.90
16267;DHT22;8241;48.786;9.250;2022-10-23T05:13:37;11.90;99.90
16267;DHT22;8241;48.786;9.250;2022-10-23T05:16:04;11.90;99.90
16267;DHT22;8241;48.786;9.250;2022-10-23T05:18:37;11.90;99.90
16267;DHT22;8241;48.786;9.250;2022-10-23T05:24:06;11.90;99.90
16267;DHT22;8241;48.786;9.250;2022-10-23T05:26:36;11.90;99.90
16267;DHT22;8241;48.786;9.250;2022-10-23T05:29:07;11.90;99.90
16267;DHT22;8241;48.786;9.250;2022-10-23T05:31:34;11.90;99.90
16267;DHT22;8241;48.786;9.250;2022-10-23T05:34:12;11.90;99.90
16267;DHT22;8241;48.786;9.250;2022-10-23T05:36:43;11.90;99.90
16267;DHT22;8241;48.786;9.250;2022-10-23T05:39:13;11.80;99.90
16267;DHT22;8241;48.786;9.250;2022-10-23T05:41:40;11.80;99.90
16267;DHT22;8241;48.786;9.250;2022-10-23T05:44:07;11.90;99.90
16267;DHT22;8241;48.786;9.250;2022-10-23T05:46:53;11.90;99.90
16267;DHT22;8241;48.786;9.250;2022-10-23T05:49:45;11.90;99.90
16267;DHT22;8241;48.786;9.250;2022-10-23T05:52:30;11.80;99.90
16267;DHT22;8241;48.786;9.250;2022-10-23T05:55:05;11.80;99.90
16267;DHT22;8241;48.786;9.250;2022-10-23T06:01:03;11.70;99.90
16267;DHT22;8241;48.786;9.250;2022-10-23T06:03:52;11.60;99.90
16267;DHT22;8241;48.786;9.250;2022-10-23T06:06:24;11.70;99.90
16267;DHT22;8241;48.786;9.250;2022-10-23T06:08:57;11.60;99.90
16267;DHT22;8241;48.786;9.250;2022-10-23T06:11:33;11.60;99.90
16267;DHT22;8241;48.786;9.250;2022-10-23T06:14:10;11.60;99.90
16267;DHT22;8241;48.786;9.250;2022-10-23T06:16:39;11.60;99.90
16267;DHT22;8241;48.786;9.250;2022-10-23T06:21:56;11.70;99.90
16267;DHT22;8241;48.786;9.250;2022-10-23T06:24:36;11.70;99.90
16267;DHT22;8241;48.786;9.250;2022-10-23T06:30:21;11.70;99.90
16267;DHT22;8241;48.786;9.250;2022-10-23T06:35:26;11.70;99.90
16267;DHT22;8241;48.786;9.250;2022-10-23T06:37:53;11.60;99.90
16267;DHT22;8241;48.786;9.250;2022-10-23T06:40:50;11.70;99.90
16267;DHT22;8241;48.786;9.250;2022-10-23T06:43:22;11.70;99.90
16267;DHT22;8241;48.786;9.250;2022-10-23T06:49:04;11.80;99.90
16267;DHT22;8241;48.786;9.250;2022-10-23T06:51:37;11.80;99.90
16267;DHT22;8241;48.786;9.250;2022-10-23T06:54:12;11.90;99.90
16267;DHT22;8241;48.786;9.250;2022-10-23T06:56:57;11.80;99.90
16267;DHT22;8241;48.786;9.250;2022-10-23T07:02:10;12.00;99.90
16267;DHT22;8241;48.786;9.250;2022-10-23T07:04:40;12.00;99.90
16267;DHT22;8241;48.786;9.250;2022-10-23T07:07:19;12.00;99.90
16267;DHT22;8241;48.786;9.250;2022-10-23T07:09:53;12.10;99.90
16267;DHT22;8241;48.786;9.250;2022-10-23T07:12:27;12.20;99.90
16267;DHT22;8241;48.786;9.250;2022-10-23T07:15:17;12.20;99.90
16267;DHT22;8241;48.786;9.250;2022-10-23T07:17:44;12.30;99.90
16267;DHT22;8241;48.786;9.250;2022-10-23T07:20:12;12.40;99.90
16267;DHT22;8241;48.786;9.250;2022-10-23T07:22:40;12.40;99.90
16267;DHT22;8241;48.786;9.250;2022-10-23T07:25:11;12.40;99.90
16267;DHT22;8241;48.786;9.250;2022-10-23T07:27:38;12.40;99.90
16267;DHT22;8241;48.786;9.250;2022-10-23T07:30:19;12.50;99.90
16267;DHT22;8241;48.786;9.250;2022-10-23T07:32:51;12.50;99.90
16267;DHT22;8241;48.786;9.250;2022-10-23T07:35:44;12.60;99.90
16267;DHT22;8241;48.786;9.250;2022-10-23T07:41:01;12.80;99.90
16267;DHT22;8241;48.786;9.250;2022-10-23T07:48:53;12.90;99.90
16267;DHT22;8241;48.786;9.250;2022-10-23T07:53:59;13.00;99.90
16267;DHT22;8241;48.786;9.250;2022-10-23T07:56:47;13.00;99.90
16267;DHT22;8241;48.786;9.250;2022-10-23T08:01:55;13.10;99.90
16267;DHT22;8241;48.786;9.250;2022-10-23T08:04:30;13.20;99.90
16267;DHT22;8241;48.786;9.250;2022-10-23T08:07:01;13.30;99.90
16267;DHT22;8241;48.786;9.250;2022-10-23T08:09:35;13.30;99.90
16267;DHT22;8241;48.786;9.250;2022-10-23T08:12:02;13.40;99.90
16267;DHT22;8241;48.786;9.250;2022-10-23T08:14:29;13.50;99.90
16267;DHT22;8241;48.786;9.250;2022-10-23T08:16:56;13.60;99.90
16267;DHT22;8241;48.786;9.250;2022-10-23T08:19:41;13.70;99.90
16267;DHT22;8241;48.786;9.250;2022-10-23T08:22:11;13.70;99.90
16267;DHT22;8241;48.786;9.250;2022-10-23T08:27:10;13.90;99.90
16267;DHT22;8241;48.786;9.250;2022-10-23T08:29:43;13.90;99.90
16267;DHT22;8241;48.786;9.250;2022-10-23T08:32:10;14.00;99.90
16267;DHT22;8241;48.786;9.250;2022-10-23T08:34:46;14.20;99.90
16267;DHT22;8241;48.786;9.250;2022-10-23T08:37:13;14.30;99.90
16267;DHT22;8241;48.786;9.250;2022-10-23T08:39:40;14.40;99.90
16267;DHT22;8241;48.786;9.250;2022-10-23T08:42:23;14.50;99.90
16267;DHT22;8241;48.786;9.250;2022-10-23T08:44:54;14.70;99.90
16267;DHT22;8241;48.786;9.250;2022-10-23T08:47:25;14.70;99.90
16267;DHT22;8241;48.786;9.250;2022-10-23T08:50:18;14.80;99.90
16267;DHT22;8241;48.786;9.250;2022-10-23T08:52:49;14.80;99.90
16267;DHT22;8241;48.786;9.250;2022-10-23T08:55:19;14.90;99.90
16267;DHT22;8241;48.786;9.250;2022-10-23T08:57:51;14.80;99.90
16267;DHT22;8241;48.786;9.250;2022-10-23T09:00:19;14.90;99.90
16267;DHT22;8241;48.786;9.250;2022-10-23T09:02:46;15.00;99.90
16267;DHT22;8241;48.786;9.250;2022-10-23T09:05:15;15.00;99.90
16267;DHT22;8241;48.786;9.250;2022-10-23T09:07:46;15.00;99.90
16267;DHT22;8241;48.786;9.250;2022-10-23T09:10:23;15.00;99.90
16267;DHT22;8241;48.786;9.250;2022-10-23T09:12:57;15.00;99.90
16267;DHT22;8241;48.786;9.250;2022-10-23T09:15:26;15.10;99.90
16267;DHT22;8241;48.786;9.250;2022-10-23T09:17:56;15.20;99.90
16267;DHT22;8241;48.786;9.250;2022-10-23T09:20:25;15.40;99.90
16267;DHT22;8241;48.786;9.250;2022-10-23T09:22:53;15.60;99.90
16267;DHT22;8241;48.786;9.250;2022-10-23T09:25:21;15.90;99.90
16267;DHT22;8241;48.786;9.250;2022-10-23T09:27:50;16.50;99.90
16267;DHT22;8241;48.786;9.250;2022-10-23T09:30:26;18.40;99.90
16267;DHT22;8241;48.786;9.250;2022-10-23T09:32:53;20.60;99.70
16267;DHT22;8241;48.786;9.250;2022-10-23T09:35:21;22.20;96.50
16267;DHT22;8241;48.786;9.250;2022-10-23T09:37:47;23.60;94.40
16267;DHT22;8241;48.786;9.250;2022-10-23T09:40:18;24.30;92.20
16267;DHT22;8241;48.786;9.250;2022-10-23T09:42:53;25.10;90.90
16267;DHT22;8241;48.786;9.250;2022-10-23T09:45:21;25.80;89.70
16267;DHT22;8241;48.786;9.250;2022-10-23T09:47:50;26.40;87.10
16267;DHT22;8241;48.786;9.250;2022-10-23T09:50:18;26.60;86.50
16267;DHT22;8241;48.786;9.250;2022-10-23T09:52:47;25.80;88.00
16267;DHT22;8241;48.786;9.250;2022-10-23T09:55:18;25.60;87.60
16267;DHT22;8241;48.786;9.250;2022-10-23T09:57:45;25.40;87.50
16267;DHT22;8241;48.786;9.250;2022-10-23T10:00:14;24.80;89.30
16267;DHT22;8241;48.786;9.250;2022-10-23T10:02:42;25.00;89.20
16267;DHT22;8241;48.786;9.250;2022-10-23T10:05:32;25.40;89.40
16267;DHT22;8241;48.786;9.250;2022-10-23T10:08:02;26.20;85.40
16267;DHT22;8241;48.786;9.250;2022-10-23T10:10:33;26.00;85.10
16267;DHT22;8241;48.786;9.250;2022-10-23T10:13:00;26.10;85.60
16267;DHT22;8241;48.786;9.250;2022-10-23T10:15:29;26.10;85.20
16267;DHT22;8241;48.786;9.250;2022-10-23T10:18:02;26.00;85.00
16267;DHT22;8241;48.786;9.250;2022-10-23T10:20:40;25.80;85.60
16267;DHT22;8241;48.786;9.250;2022-10-23T10:23:11;24.90;87.40
16267;DHT22;8241;48.786;9.250;2022-10-23T10:25:42;24.40;89.70
16267;DHT22;8241;48.786;9.250;2022-10-23T10:28:18;24.00;90.20
16267;DHT22;8241;48.786;9.250;2022-10-23T10:30:54;23.80;90.50
16267;DHT22;8241;48.786;9.250;2022-10-23T10:33:27;23.10;91.50
16267;DHT22;8241;48.786;9.250;2022-10-23T10:35:58;23.30;91.50
16267;DHT22;8241;48.786;9.250;2022-10-23T10:38:37;22.70;91.50
16267;DHT22;8241;48.786;9.250;2022-10-23T10:44:14;22.50;91.80
16267;DHT22;8241;48.786;9.250;2022-10-23T10:46:46;22.40;92.10
16267;DHT22;8241;48.786;9.250;2022-10-23T10:49:17;22.20;92.50
16267;DHT22;8241;48.786;9.250;2022-10-23T10:52:02;22.20;92.90
16267;DHT22;8241;48.786;9.250;2022-10-23T10:54:35;22.20;92.40
16267;DHT22;8241;48.786;9.250;2022-10-23T10:57:08;21.70;93.00
16267;DHT22;8241;48.786;9.250;2022-10-23T10:59:37;21.60;93.20
16267;DHT22;8241;48.786;9.250;2022-10-23T11:02:12;21.30;93.20
16267;DHT22;8241;48.786;9.250;2022-10-23T11:04:43;21.30;94.10
16267;DHT22;8241;48.786;9.250;2022-10-23T11:07:15;21.20;94.30
16267;DHT22;8241;48.786;9.250;2022-10-23T11:09:43;21.10;94.30
16267;DHT22;8241;48.786;9.250;2022-10-23T11:12:13;21.10;94.60
16267;DHT22;8241;48.786;9.250;2022-10-23T11:14:42;21.10;94.30
16267;DHT22;8241;48.786;9.250;2022-10-23T11:17:09;21.00;94.70
16267;DHT22;8241;48.786;9.250;2022-10-23T11:19:39;20.90;94.90
16267;DHT22;8241;48.786;9.250;2022-10-23T11:22:08;20.80;95.10
16267;DHT22;8241;48.786;9.250;2022-10-23T11:24:51;20.80;95.30
16267;DHT22;8241;48.786;9.250;2022-10-23T11:27:30;20.80;96.20
16267;DHT22;8241;48.786;9.250;2022-10-23T11:30:09;20.60;96.20
16267;DHT22;8241;48.786;9.250;2022-10-23T11:32:44;20.50;96.10
16267;DHT22;8241;48.786;9.250;2022-10-23T11:35:23;20.40;96.60
16267;DHT22;8241;48.786;9.250;2022-10-23T11:37:58;20.30;96.80
16267;DHT22;8241;48.786;9.250;2022-10-23T11:40:27;20.20;96.90
16267;DHT22;8241;48.786;9.250;2022-10-23T11:42:54;20.00;97.40
16267;DHT22;8241;48.786;9.250;2022-10-23T11:45:28;20.00;97.40
16267;DHT22;8241;48.786;9.250;2022-10-23T11:47:55;19.80;97.50
16267;DHT22;8241;48.786;9.250;2022-10-23T11:50:24;19.80;97.20
16267;DHT22;8241;48.786;9.250;2022-10-23T11:52:59;19.90;97.30
16267;DHT22;8241;48.786;9.250;2022-10-23T11:55:29;19.90;97.70
16267;DHT22;8241;48.786;9.250;2022-10-23T12:00:59;20.00;97.40
16267;DHT22;8241;48.786;9.250;2022-10-23T12:03:37;19.90;97.50
16267;DHT22;8241;48.786;9.250;2022-10-23T12:06:05;20.10;97.60
16267;DHT22;8241;48.786;9.250;2022-10-23T12:08:34;20.20;97.60
16267;DHT22;8241;48.786;9.250;2022-10-23T12:11:04;20.40;97.50
16267;DHT22;8241;48.786;9.250;2022-10-23T12:16:33;20.50;97.20
16267;DHT22;8241;48.786;9.250;2022-10-23T12:19:00;20.60;96.60
16267;DHT22;8241;48.786;9.250;2022-10-23T12:21:37;20.70;97.00
16267;DHT22;8241;48.786;9.250;2022-10-23T12:24:20;20.60;96.60
16267;DHT22;8241;48.786;9.250;2022-10-23T12:27:09;20.70;96.60
16267;DHT22;8241;48.786;9.250;2022-10-23T12:32:12;20.70;96.50
16267;DHT22;8241;48.786;9.250;2022-10-23T12:34:44;20.70;96.30
16267;DHT22;8241;48.786;9.250;2022-10-23T12:37:17;20.60;96.70
16267;DHT22;8241;48.786;9.250;2022-10-23T12:39:53;20.70;96.80
16267;DHT22;8241;48.786;9.250;2022-10-23T12:42:22;20.70;97.10
16267;DHT22;8241;48.786;9.250;2022-10-23T12:44:56;20.80;96.70
16267;DHT22;8241;48.786;9.250;2022-10-23T12:47:23;20.90;96.70
16267;DHT22;8241;48.786;9.250;2022-10-23T12:49:50;21.10;96.90
16267;DHT22;8241;48.786;9.250;2022-10-23T12:52:17;21.10;96.80
16267;DHT22;8241;48.786;9.250;2022-10-23T12:54:52;21.20;96.60
16267;DHT22;8241;48.786;9.250;2022-10-23T12:57:20;21.30;96.60
16267;DHT22;8241;48.786;9.250;2022-10-23T12:59:50;21.50;96.80
16267;DHT22;8241;48.786;9.250;2022-10-23T13:02:22;21.60;96.10
16267;DHT22;8241;48.786;9.250;2022-10-23T13:04:50;21.60;96.20
16267;DHT22;8241;48.786;9.250;2022-10-23T13:07:17;21.60;96.20
16267;DHT22;8241;48.786;9.250;2022-10-23T13:09:45;21.80;96.00
16267;DHT22;8241;48.786;9.250;2022-10-23T13:12:20;22.00;95.50
16267;DHT22;8241;48.786;9.250;2022-10-23T13:15:00;22.10;95.70
16267;DHT22;8241;48.786;9.250;2022-10-23T13:17:36;22.00;96.10
16267;DHT22;8241;48.786;9.250;2022-10-23T13:20:19;22.00;96.00
16267;DHT22;8241;48.786;9.250;2022-10-23T13:22:47;22.00;96.40
16267;DHT22;8241;48.786;9.250;2022-10-23T13:25:20;22.20;95.40
16267;DHT22;8241;48.786;9.250;2022-10-23T13:27:47;22.20;95.80
16267;DHT22;8241;48.786;9.250;2022-10-23T13:30:28;22.20;94.90
16267;DHT22;8241;48.786;9.250;2022-10-23T13:32:55;22.10;95.20
16267;DHT22;8241;48.786;9.250;2022-10-23T13:35:22;21.90;95.90
16267;DHT22;8241;48.786;9.250;2022-10-23T13:37:49;21.80;95.40
16267;DHT22;8241;48.786;9.250;2022-10-23T13:40:21;21.70;95.90
16267;DHT22;8241;48.786;9.250;2022-10-23T13:42:48;21.70;95.70
16267;DHT22;8241;48.786;9.250;2022-10-23T13:45:17;21.60;96.10
16267;DHT22;8241;48.786;9.250;2022-10-23T13:47:45;21.70;96.50
16267;DHT22;8241;48.786;9.250;2022-10-23T13:50:12;21.50;96.40
16267;DHT22;8241;48.786;9.250;2022-10-23T13:52:39;21.50;96.30
16267;DHT22;8241;48.786;9.250;2022-10-23T13:55:10;21.40;96.80
16267;DHT22;8241;48.786;9.250;2022-10-23T13:57:41;21.20;97.60
16267;DHT22;8241;48.786;9.250;2022-10-23T14:00:08;21.00;97.50
16267;DHT22;8241;48.786;9.250;2022-10-23T14:02:37;20.90;97.90
16267;DHT22;8241;48.786;9.250;2022-10-23T14:05:12;20.70;99.20
16267;DHT22;8241;48.786;9.250;2022-10-23T14:07:40;20.60;99.90
16267;DHT22;8241;48.786;9.250;2022-10-23T14:10:07;20.50;99.90
16267;DHT22;8241;48.786;9.250;2022-10-23T14:12:37;20.40;99.90
16267;DHT22;8241;48.786;9.250;2022-10-23T14:15:05;20.40;99.90
16267;DHT22;8241;48.786;9.250;2022-10-23T14:17:32;20.30;99.90
16267;DHT22;8241;48.786;9.250;2022-10-23T14:20:02;20.20;99.90
16267;DHT22;8241;48.786;9.250;2022-10-23T14:22:30;20.10;99.90
16267;DHT22;8241;48.786;9.250;2022-10-23T14:30:39;19.80;99.90
16267;DHT22;8241;48.786;9.250;2022-10-23T14:36:01;19.70;99.90
16267;DHT22;8241;48.786;9.250;2022-10-23T14:38:31;19.60;99.90
16267;DHT22;8241;48.786;9.250;2022-10-23T14:41:16;19.60;99.90
16267;DHT22;8241;48.786;9.250;2022-10-23T14:43:43;19.60;99.90
16267;DHT22;8241;48.786;9.250;2022-10-23T14:46:10;19.60;99.90
16267;DHT22;8241;48.786;9.250;2022-10-23T14:48:37;19.60;99.90
16267;DHT22;8241;48.786;9.250;2022-10-23T14:53:54;19.50;99.90
16267;DHT22;8241;48.786;9.250;2022-10-23T15:02:09;19.40;99.90
16267;DHT22;8241;48.786;9.250;2022-10-23T15:04:41;19.50;99.90
16267;DHT22;8241;48.786;9.250;2022-10-23T15:09:53;19.50;99.90
16267;DHT22;8241;48.786;9.250;2022-10-23T15:12:23;19.50;99.90
16267;DHT22;8241;48.786;9.250;2022-10-23T15:14:58;19.60;99.90
16267;DHT22;8241;48.786;9.250;2022-10-23T15:20:08;19.50;99.90
16267;DHT22;8241;48.786;9.250;2022-10-23T15:22:35;19.50;99.90
16267;DHT22;8241;48.786;9.250;2022-10-23T15:27:54;19.50;99.90
16267;DHT22;8241;48.786;9.250;2022-10-23T15:30:34;19.50;99.90
16267;DHT22;8241;48.786;9.250;2022-10-23T15:33:18;19.40;99.90
16267;DHT22;8241;48.786;9.250;2022-10-23T15:36:00;19.50;99.90
16267;DHT22;8241;48.786;9.250;2022-10-23T15:44:02;19.50;99.90
16267;DHT22;8241;48.786;9.250;2022-10-23T15:46:30;19.40;99.90
16267;DHT22;8241;48.786;9.250;2022-10-23T15:48:57;19.40;99.90
16267;DHT22;8241;48.786;9.250;2022-10-23T15:51:23;19.40;99.90
16267;DHT22;8241;48.786;9.250;2022-10-23T15:59:05;19.40;99.90
16267;DHT22;8241;48.786;9.250;2022-10-23T16:01:33;19.30;99.90
16267;DHT22;8241;48.786;9.250;2022-10-23T16:04:12;19.20;99.90
16267;DHT22;8241;48.786;9.250;2022-10-23T16:06:41;19.10;99.90
16267;DHT22;8241;48.786;9.250;2022-10-23T16:09:09;19.10;99.90
16267;DHT22;8241;48.786;9.250;2022-10-23T16:11:37;19.10;99.90
16267;DHT22;8241;48.786;9.250;2022-10-23T16:14:09;19.00;99.90
16267;DHT22;8241;48.786;9.250;2022-10-23T16:16:37;19.00;99.90
16267;DHT22;8241;48.786;9.250;2022-10-23T16:21:54;18.90;99.90
16267;DHT22;8241;48.786;9.250;2022-10-23T16:24:23;18.80;99.90
16267;DHT22;8241;48.786;9.250;2022-10-23T16:26:56;18.80;99.90
16267;DHT22;8241;48.786;9.250;2022-10-23T16:29:24;18.80;99.90
16267;DHT22;8241;48.786;9.250;2022-10-23T16:31:54;18.80;99.90
16267;DHT22;8241;48.786;9.250;2022-10-23T16:34:22;18.80;99.90
16267;DHT22;8241;48.786;9.250;2022-10-23T16:36:50;18.70;99.90
16267;DHT22;8241;48.786;9.250;2022-10-23T16:42:31;18.60;99.90
16267;DHT22;8241;48.786;9.250;2022-10-23T16:45:22;18.50;99.90
16267;DHT22;8241;48.786;9.250;2022-10-23T16:47:50;18.60;99.90
16267;DHT22;8241;48.786;9.250;2022-10-23T16:50:17;18.50;99.90
16267;DHT22;8241;48.786;9.250;2022-10-23T16:52:45;18.50;99.90
16267;DHT22;8241;48.786;9.250;2022-10-23T16:58:06;18.60;99.90
16267;DHT22;8241;48.786;9.250;2022-10-23T17:00:41;18.60;99.90
16267;DHT22;8241;48.786;9.250;2022-10-23T17:03:12;18.60;99.90
16267;DHT22;8241;48.786;9.250;2022-10-23T17:05:51;18.60;99.90
16267;DHT22;8241;48.786;9.250;2022-10-23T17:08:21;18.50;99.90
16267;DHT22;8241;48.786;9.250;2022-10-23T17:10:49;18.50;99.90
16267;DHT22;8241;48.786;9.250;2022-10-23T17:13:23;18.50;99.90
16267;DHT22;8241;48.786;9.250;2022-10-23T17:16:02;18.50;99.90
16267;DHT22;8241;48.786;9.250;2022-10-23T17:18:29;18.50;99.90
16267;DHT22;8241;48.786;9.250;2022-10-23T17:20:56;18.40;99.90
16267;DHT22;8241;48.786;9.250;2022-10-23T17:26:30;18.40;99.90
16267;DHT22;8241;48.786;9.250;2022-10-23T17:29:03;18.40;99.90
16267;DHT22;8241;48.786;9.250;2022-10-23T17:31:41;18.40;99.90
16267;DHT22;8241;48.786;9.250;2022-10-23T17:36:38;18.40;99.90
16267;DHT22;8241;48.786;9.250;2022-10-23T17:39:06;18.40;99.90
16267;DHT22;8241;48.786;9.250;2022-10-23T17:47:20;18.30;99.90
16267;DHT22;8241;48.786;9.250;2022-10-23T17:49:48;18.20;99.90
16267;DHT22;8241;48.786;9.250;2022-10-23T17:52:27;18.20;99.90
16267;DHT22;8241;48.786;9.250;2022-10-23T17:54:58;18.20;99.90
16267;DHT22;8241;48.786;9.250;2022-10-23T17:57:24;18.20;99.90
16267;DHT22;8241;48.786;9.250;2022-10-23T17:59:51;18.50;99.90
16267;DHT22;8241;48.786;9.250;2022-10-23T18:02:21;18.50;99.90
16267;DHT22;8241;48.786;9.250;2022-10-23T18:05:02;18.50;99.90
16267;DHT22;8241;48.786;9.250;2022-10-23T18:07:34;18.50;99.90
16267;DHT22;8241;48.786;9.250;2022-10-23T18:10:11;18.50;99.90
16267;DHT22;8241;48.786;9.250;2022-10-23T18:12:38;18.50;99.90
16267;DHT22;8241;48.786;9.250;2022-10-23T18:15:05;18.40;99.90
16267;DHT22;8241;48.786;9.250;2022-10-23T18:17:43;18.30;99.90
16267;DHT22;8241;48.786;9.250;2022-10-23T18:20:22;18.20;99.90
16267;DHT22;8241;48.786;9.250;2022-10-23T18:22:57;18.20;99.90
16267;DHT22;8241;48.786;9.250;2022-10-23T18:25:31;18.10;99.90
16267;DHT22;8241;48.786;9.250;2022-10-23T18:27:58;18.00;99.90
16267;DHT22;8241;48.786;9.250;2022-10-23T18:30:25;18.00;99.90
16267;DHT22;8241;48.786;9.250;2022-10-23T18:32:53;18.00;99.90